sensor_id;sensor_type;location;lat;lon;timestamp;pressure;altitude;pressure_sealevel;temperature;humidity
19576;BME280;41589;51.196;7.074;2023-03-25T00:03:51;97796.06;;;9.52;100.00
19576;BME280;41589;51.196;7.074;2023-03-25T00:08:53;97803.06;;;9.42;100.00
19576;BME280;41589;51.196;7.074;2023-03-25T00:13:53;97795.78;;;9.50;100.00
19576;BME280;41589;51.196;7.074;2023-03-25T00:18:53;97796.66;;;9.41;100.00
19576;BME280;41589;51.196;7.074;2023-03-25T00:23:54;97784.28;;;9.48;100.00
19576;BME280;41589;51.196;7.074;2023-03-25T00:28:55;97776.03;;;9.44;100.00
19576;BME280;41589;51.196;7.074;2023-03-25T00:33:55;97779.31;;;9.43;100.00
19576;BME280;41589;51.196;7.074;2023-03-25T00:38:57;97775.06;;;9.47;100.00
19576;BME280;41589;51.196;7.074;2023-03-25T00:43:59;97771.06;;;9.54;100.00
19576;BME280;41589;51.196;7.074;2023-03-25T00:48:59;97767.97;;;9.52;100.00
19576;BME280;41589;51.196;7.074;2023-03-25T00:54:00;97785.72;;;9.43;100.00
19576;BME280;41589;51.196;7.074;2023-03-25T00:59:01;97762.09;;;9.35;100.00
19576;BME280;41589;51.196;7.074;2023-03-25T01:04:01;97766.94;;;9.35;100.00
19576;BME280;41589;51.196;7.074;2023-03-25T01:09:05;97768.78;;;9.38;100.00
19576;BME280;41589;51.196;7.074;2023-03-25T01:14:10;97761.72;;;9.42;100.00
19576;BME280;41589;51.196;7.074;2023-03-25T01:19:12;97753.56;;;9.44;100.00
19576;BME280;41589;51.196;7.074;2023-03-25T01:24:14;97761.31;;;9.35;100.00
19576;BME280;41589;51.196;7.074;2023-03-25T01:29:17;97774.81;;;9.31;100.00
19576;BME280;41589;51.196;7.074;2023-03-25T01:34:18;97762.69;;;9.39;100.00
19576;BME280;41589;51.196;7.074;2023-03-25T01:39:22;97762.78;;;9.30;100.00
19576;BME280;41589;51.196;7.074;2023-03-25T01:54:30;97759.00;;;9.33;100.00
19576;BME280;41589;51.196;7.074;2023-03-25T01:59:30;97747.78;;;9.33;100.00
19576;BME280;41589;51.196;7.074;2023-03-25T02:04:48;97752.84;;;9.29;100.00
19576;BME280;41589;51.196;7.074;2023-03-25T02:09:59;97750.59;;;9.33;100.00
19576;BME280;41589;51.196;7.074;2023-03-25T02:15:03;97747.88;;;9.24;100.00
19576;BME280;41589;51.196;7.074;2023-03-25T02:30:40;97736.66;;;9.24;100.00
19576;BME280;41589;51.196;7.074;2023-03-25T02:36:11;97751.69;;;9.21;100.00
19576;BME280;41589;51.196;7.074;2023-03-25T02:46:35;97753.16;;;9.16;100.00
19576;BME280;41589;51.196;7.074;2023-03-25T02:51:40;97746.88;;;9.07;100.00
19576;BME280;41589;51.196;7.074;2023-03-25T02:56:45;97743.28;;;9.06;100.00
19576;BME280;41589;51.196;7.074;2023-03-25T03:01:47;97742.81;;;9.08;100.00
19576;BME280;41589;51.196;7.074;2023-03-25T03:06:50;97741.25;;;9.07;100.00
19576;BME280;41589;51.196;7.074;2023-03-25T03:17:37;97739.13;;;9.02;100.00
19576;BME280;41589;51.196;7.074;2023-03-25T03:27:51;97719.47;;;9.02;100.00
19576;BME280;41589;51.196;7.074;2023-03-25T03:33:04;97728.56;;;9.11;100.00
19576;BME280;41589;51.196;7.074;2023-03-25T03:38:11;97748.69;;;9.10;100.00
19576;BME280;41589;51.196;7.074;2023-03-25T03:43:16;97736.69;;;9.09;100.00
19576;BME280;41589;51.196;7.074;2023-03-25T03:48:35;97742.50;;;9.06;100.00
19576;BME280;41589;51.196;7.074;2023-03-25T03:53:41;97742.91;;;8.98;100.00
19576;BME280;41589;51.196;7.074;2023-03-25T03:58:44;97745.00;;;9.04;100.00
19576;BME280;41589;51.196;7.074;2023-03-25T04:03:49;97747.16;;;8.94;100.00
19576;BME280;41589;51.196;7.074;2023-03-25T04:08:56;97750.06;;;8.99;100.00
19576;BME280;41589;51.196;7.074;2023-03-25T04:14:00;97757.91;;;8.95;100.00
19576;BME280;41589;51.196;7.074;2023-03-25T04:19:05;97751.13;;;9.02;100.00
19576;BME280;41589;51.196;7.074;2023-03-25T04:24:05;97753.75;;;9.06;100.00
19576;BME280;41589;51.196;7.074;2023-03-25T04:29:07;97745.31;;;9.06;100.00
19576;BME280;41589;51.196;7.074;2023-03-25T04:34:09;97748.31;;;9.02;100.00
19576;BME280;41589;51.196;7.074;2023-03-25T04:39:09;97747.47;;;8.96;100.00
19576;BME280;41589;51.196;7.074;2023-03-25T04:44:12;97752.09;;;8.99;100.00
19576;BME280;41589;51.196;7.074;2023-03-25T04:49:18;97754.41;;;9.01;100.00
19576;BME280;41589;51.196;7.074;2023-03-25T04:54:20;97750.44;;;9.07;100.00
19576;BME280;41589;51.196;7.074;2023-03-25T04:59:21;97749.97;;;9.09;100.00
19576;BME280;41589;51.196;7.074;2023-03-25T05:04:22;97745.19;;;9.15;100.00
19576;BME280;41589;51.196;7.074;2023-03-25T05:09:23;97741.75;;;9.05;100.00
19576;BME280;41589;51.196;7.074;2023-03-25T05:14:24;97733.69;;;9.13;100.00
19576;BME280;41589;51.196;7.074;2023-03-25T05:19:24;97742.03;;;9.07;100.00
19576;BME280;41589;51.196;7.074;2023-03-25T05:24:27;97745.00;;;9.04;100.00
19576;BME280;41589;51.196;7.074;2023-03-25T05:29:28;97752.75;;;9.09;100.00
19576;BME280;41589;51.196;7.074;2023-03-25T05:34:32;97749.19;;;9.08;100.00
19576;BME280;41589;51.196;7.074;2023-03-25T05:39:33;97760.41;;;8.93;100.00
19576;BME280;41589;51.196;7.074;2023-03-25T05:44:33;97780.94;;;8.99;100.00
19576;BME280;41589;51.196;7.074;2023-03-25T05:49:34;97761.31;;;8.85;100.00
19576;BME280;41589;51.196;7.074;2023-03-25T05:54:34;97760.53;;;8.84;100.00
19576;BME280;41589;51.196;7.074;2023-03-25T05:59:40;97764.88;;;9.00;100.00
19576;BME280;41589;51.196;7.074;2023-03-25T06:04:42;97752.66;;;9.03;100.00
19576;BME280;41589;51.196;7.074;2023-03-25T06:09:43;97757.13;;;9.10;100.00
19576;BME280;41589;51.196;7.074;2023-03-25T06:14:46;97767.00;;;9.05;100.00
19576;BME280;41589;51.196;7.074;2023-03-25T06:19:49;97758.28;;;9.03;100.00
19576;BME280;41589;51.196;7.074;2023-03-25T06:24:49;97759.53;;;9.02;100.00
19576;BME280;41589;51.196;7.074;2023-03-25T06:29:51;97760.63;;;9.05;100.00
19576;BME280;41589;51.196;7.074;2023-03-25T06:34:51;97770.38;;;9.09;100.00
19576;BME280;41589;51.196;7.074;2023-03-25T06:39:52;97765.03;;;9.11;100.00
19576;BME280;41589;51.196;7.074;2023-03-25T06:44:56;97765.16;;;9.02;100.00
19576;BME280;41589;51.196;7.074;2023-03-25T06:50:31;97767.88;;;8.96;100.00
19576;BME280;41589;51.196;7.074;2023-03-25T06:55:32;97762.94;;;8.91;100.00
19576;BME280;41589;51.196;7.074;2023-03-25T07:00:32;97778.63;;;8.98;100.00
19576;BME280;41589;51.196;7.074;2023-03-25T07:05:32;97769.72;;;8.99;100.00
19576;BME280;41589;51.196;7.074;2023-03-25T07:10:33;97767.88;;;8.96;100.00
19576;BME280;41589;51.196;7.074;2023-03-25T07:15:34;97791.00;;;8.91;100.00
19576;BME280;41589;51.196;7.074;2023-03-25T07:20:36;97778.81;;;8.94;100.00
19576;BME280;41589;51.196;7.074;2023-03-25T07:25:37;97790.22;;;9.06;100.00
19576;BME280;41589;51.196;7.074;2023-03-25T07:30:37;97788.09;;;9.15;100.00
19576;BME280;41589;51.196;7.074;2023-03-25T07:35:37;97793.03;;;9.20;100.00
19576;BME280;41589;51.196;7.074;2023-03-25T07:40:38;97773.94;;;9.24;100.00
19576;BME280;41589;51.196;7.074;2023-03-25T07:45:38;97803.44;;;9.35;100.00
19576;BME280;41589;51.196;7.074;2023-03-25T07:50:39;97796.41;;;9.24;100.00
19576;BME280;41589;51.196;7.074;2023-03-25T07:55:39;97792.22;;;9.35;100.00
19576;BME280;41589;51.196;7.074;2023-03-25T08:00:40;97807.63;;;9.39;100.00
19576;BME280;41589;51.196;7.074;2023-03-25T08:05:45;97809.38;;;9.37;100.00
19576;BME280;41589;51.196;7.074;2023-03-25T08:10:46;97812.53;;;9.44;100.00
19576;BME280;41589;51.196;7.074;2023-03-25T08:15:48;97802.84;;;9.45;100.00
19576;BME280;41589;51.196;7.074;2023-03-25T08:20:48;97831.59;;;9.55;100.00
19576;BME280;41589;51.196;7.074;2023-03-25T08:25:51;97832.38;;;9.55;99.03
19576;BME280;41589;51.196;7.074;2023-03-25T08:30:52;97826.09;;;9.61;100.00
19576;BME280;41589;51.196;7.074;2023-03-25T08:35:56;97831.38;;;9.88;100.00
19576;BME280;41589;51.196;7.074;2023-03-25T08:40:57;97820.47;;;9.96;98.05
19576;BME280;41589;51.196;7.074;2023-03-25T08:45:58;97823.25;;;10.10;97.02
19576;BME280;41589;51.196;7.074;2023-03-25T08:50:58;97821.22;;;10.11;95.21
19576;BME280;41589;51.196;7.074;2023-03-25T08:56:00;97818.69;;;10.13;94.70
19576;BME280;41589;51.196;7.074;2023-03-25T09:01:00;97829.03;;;10.22;95.32
19576;BME280;41589;51.196;7.074;2023-03-25T09:06:05;97820.00;;;10.18;93.82
19576;BME280;41589;51.196;7.074;2023-03-25T09:11:05;97822.53;;;10.36;93.95
19576;BME280;41589;51.196;7.074;2023-03-25T09:16:07;97821.22;;;10.52;92.98
19576;BME280;41589;51.196;7.074;2023-03-25T09:21:07;97828.28;;;10.67;92.17
19576;BME280;41589;51.196;7.074;2023-03-25T09:26:08;97821.88;;;10.67;91.38
19576;BME280;41589;51.196;7.074;2023-03-25T09:31:09;97831.50;;;10.81;91.36
19576;BME280;41589;51.196;7.074;2023-03-25T09:36:09;97828.13;;;10.77;89.10
19576;BME280;41589;51.196;7.074;2023-03-25T09:46:40;97830.56;;;10.89;85.89
19576;BME280;41589;51.196;7.074;2023-03-25T09:51:42;97821.44;;;11.00;86.33
19576;BME280;41589;51.196;7.074;2023-03-25T09:56:43;97825.09;;;11.06;84.50
19576;BME280;41589;51.196;7.074;2023-03-25T10:01:54;97828.09;;;11.23;84.76
19576;BME280;41589;51.196;7.074;2023-03-25T10:07:21;97838.88;;;11.24;84.40
19576;BME280;41589;51.196;7.074;2023-03-25T10:23:07;97851.00;;;11.10;81.40
19576;BME280;41589;51.196;7.074;2023-03-25T10:28:19;97855.50;;;11.02;79.89
19576;BME280;41589;51.196;7.074;2023-03-25T10:33:34;97862.81;;;11.14;82.38
19576;BME280;41589;51.196;7.074;2023-03-25T10:38:36;97863.59;;;11.15;79.16
19576;BME280;41589;51.196;7.074;2023-03-25T10:43:39;97864.88;;;11.14;78.58
19576;BME280;41589;51.196;7.074;2023-03-25T10:48:40;97863.88;;;11.43;78.17
19576;BME280;41589;51.196;7.074;2023-03-25T10:53:44;97865.53;;;11.55;80.15
19576;BME280;41589;51.196;7.074;2023-03-25T10:58:50;97867.16;;;11.36;77.32
19576;BME280;41589;51.196;7.074;2023-03-25T11:03:51;97873.00;;;11.32;77.29
19576;BME280;41589;51.196;7.074;2023-03-25T11:09:23;97869.22;;;11.41;80.07
19576;BME280;41589;51.196;7.074;2023-03-25T11:14:26;97869.97;;;11.67;77.66
19576;BME280;41589;51.196;7.074;2023-03-25T11:19:36;97865.13;;;11.68;76.71
19576;BME280;41589;51.196;7.074;2023-03-25T11:24:43;97857.44;;;11.68;76.58
19576;BME280;41589;51.196;7.074;2023-03-25T11:29:58;97859.38;;;11.94;77.63
19576;BME280;41589;51.196;7.074;2023-03-25T11:35:15;97834.63;;;12.09;77.93
19576;BME280;41589;51.196;7.074;2023-03-25T11:40:17;97855.84;;;11.99;71.93
19576;BME280;41589;51.196;7.074;2023-03-25T11:45:35;97841.50;;;12.02;73.83
19576;BME280;41589;51.196;7.074;2023-03-25T11:50:47;97855.00;;;12.30;76.02
19576;BME280;41589;51.196;7.074;2023-03-25T11:55:58;97848.41;;;12.44;73.32
19576;BME280;41589;51.196;7.074;2023-03-25T12:01:03;97869.25;;;12.58;73.89
19576;BME280;41589;51.196;7.074;2023-03-25T12:11:13;97878.88;;;12.34;70.47
19576;BME280;41589;51.196;7.074;2023-03-25T12:32:53;97892.25;;;11.65;77.75
19576;BME280;41589;51.196;7.074;2023-03-25T12:38:21;97886.06;;;11.93;80.08
19576;BME280;41589;51.196;7.074;2023-03-25T12:43:48;97875.13;;;11.69;77.09
19576;BME280;41589;51.196;7.074;2023-03-25T12:49:12;97869.91;;;11.93;78.43
19576;BME280;41589;51.196;7.074;2023-03-25T13:05:21;97852.75;;;12.39;78.62
19576;BME280;41589;51.196;7.074;2023-03-25T13:10:27;97853.28;;;12.43;74.64
19576;BME280;41589;51.196;7.074;2023-03-25T13:15:43;97833.50;;;12.43;75.15
19576;BME280;41589;51.196;7.074;2023-03-25T13:20:48;97831.97;;;12.42;71.48
19576;BME280;41589;51.196;7.074;2023-03-25T13:26:01;97823.19;;;12.29;69.94
19576;BME280;41589;51.196;7.074;2023-03-25T13:31:09;97870.47;;;11.97;70.57
19576;BME280;41589;51.196;7.074;2023-03-25T13:36:31;97877.75;;;11.46;73.18
19576;BME280;41589;51.196;7.074;2023-03-25T13:41:41;97918.09;;;11.12;75.61
19576;BME280;41589;51.196;7.074;2023-03-25T13:46:52;97932.59;;;10.23;79.21
19576;BME280;41589;51.196;7.074;2023-03-25T13:51:54;97914.63;;;9.56;83.77
19576;BME280;41589;51.196;7.074;2023-03-25T14:02:27;97911.72;;;9.36;89.49
19576;BME280;41589;51.196;7.074;2023-03-25T14:12:54;97906.88;;;9.21;100.00
19576;BME280;41589;51.196;7.074;2023-03-25T14:17:56;97896.72;;;9.39;100.00
19576;BME280;41589;51.196;7.074;2023-03-25T14:23:01;97905.03;;;9.33;100.00
19576;BME280;41589;51.196;7.074;2023-03-25T14:28:04;97897.69;;;9.50;100.00
19576;BME280;41589;51.196;7.074;2023-03-25T14:33:08;97905.34;;;9.50;100.00
19576;BME280;41589;51.196;7.074;2023-03-25T14:43:36;97891.53;;;9.67;100.00
19576;BME280;41589;51.196;7.074;2023-03-25T14:53:53;97878.78;;;9.80;100.00
19576;BME280;41589;51.196;7.074;2023-03-25T14:58:57;97870.63;;;9.82;100.00
19576;BME280;41589;51.196;7.074;2023-03-25T15:04:10;97852.09;;;9.76;100.00
19576;BME280;41589;51.196;7.074;2023-03-25T15:09:15;97859.41;;;9.68;100.00
19576;BME280;41589;51.196;7.074;2023-03-25T15:14:25;97883.31;;;9.63;100.00
19576;BME280;41589;51.196;7.074;2023-03-25T15:19:26;97886.94;;;9.49;100.00
19576;BME280;41589;51.196;7.074;2023-03-25T15:24:32;97895.44;;;9.25;100.00
19576;BME280;41589;51.196;7.074;2023-03-25T15:57:12;97914.31;;;8.71;100.00
19576;BME280;41589;51.196;7.074;2023-03-25T16:02:27;97906.13;;;8.82;100.00
19576;BME280;41589;51.196;7.074;2023-03-25T16:07:29;97903.53;;;8.93;100.00
19576;BME280;41589;51.196;7.074;2023-03-25T16:12:31;97902.81;;;9.08;100.00
19576;BME280;41589;51.196;7.074;2023-03-25T16:17:32;97907.84;;;9.18;100.00
19576;BME280;41589;51.196;7.074;2023-03-25T16:22:34;97919.06;;;9.18;100.00
19576;BME280;41589;51.196;7.074;2023-03-25T16:27:44;97902.31;;;9.24;100.00
19576;BME280;41589;51.196;7.074;2023-03-25T16:32:48;97917.53;;;9.32;100.00
19576;BME280;41589;51.196;7.074;2023-03-25T16:37:52;97920.28;;;8.88;100.00
19576;BME280;41589;51.196;7.074;2023-03-25T16:43:04;97927.94;;;8.87;100.00
19576;BME280;41589;51.196;7.074;2023-03-25T16:48:09;97919.78;;;8.89;100.00
19576;BME280;41589;51.196;7.074;2023-03-25T16:53:14;97910.69;;;8.80;100.00
19576;BME280;41589;51.196;7.074;2023-03-25T16:58:18;97940.19;;;8.75;100.00
19576;BME280;41589;51.196;7.074;2023-03-25T17:03:45;97930.44;;;8.61;100.00
19576;BME280;41589;51.196;7.074;2023-03-25T17:08:49;97927.66;;;8.37;100.00
19576;BME280;41589;51.196;7.074;2023-03-25T17:13:54;97951.81;;;8.35;100.00
19576;BME280;41589;51.196;7.074;2023-03-25T17:18:58;97963.75;;;8.45;100.00
19576;BME280;41589;51.196;7.074;2023-03-25T17:24:24;97954.19;;;8.51;100.00
19576;BME280;41589;51.196;7.074;2023-03-25T17:35:25;97973.06;;;8.51;100.00
19576;BME280;41589;51.196;7.074;2023-03-25T17:40:29;97972.75;;;8.49;100.00
19576;BME280;41589;51.196;7.074;2023-03-25T17:45:30;97981.19;;;8.49;100.00
19576;BME280;41589;51.196;7.074;2023-03-25T17:50:30;97976.38;;;8.40;100.00
19576;BME280;41589;51.196;7.074;2023-03-25T17:55:32;98001.84;;;8.27;100.00
19576;BME280;41589;51.196;7.074;2023-03-25T18:00:32;98008.53;;;8.21;100.00
19576;BME280;41589;51.196;7.074;2023-03-25T18:05:33;98007.75;;;8.20;100.00
19576;BME280;41589;51.196;7.074;2023-03-25T18:10:33;98017.63;;;8.06;100.00
19576;BME280;41589;51.196;7.074;2023-03-25T18:15:35;98019.38;;;8.04;100.00
19576;BME280;41589;51.196;7.074;2023-03-25T18:20:36;98018.28;;;8.01;100.00
19576;BME280;41589;51.196;7.074;2023-03-25T18:25:36;98013.75;;;8.04;100.00
19576;BME280;41589;51.196;7.074;2023-03-25T18:30:51;98020.44;;;8.06;100.00
19576;BME280;41589;51.196;7.074;2023-03-25T18:35:52;98021.22;;;8.07;100.00
19576;BME280;41589;51.196;7.074;2023-03-25T18:40:54;98035.22;;;8.07;100.00
19576;BME280;41589;51.196;7.074;2023-03-25T18:45:55;98037.41;;;8.12;100.00
19576;BME280;41589;51.196;7.074;2023-03-25T18:50:57;98046.88;;;8.24;100.00
19576;BME280;41589;51.196;7.074;2023-03-25T18:56:00;98046.09;;;8.32;100.00
19576;BME280;41589;51.196;7.074;2023-03-25T19:01:02;98055.41;;;8.29;100.00
19576;BME280;41589;51.196;7.074;2023-03-25T19:06:06;98054.63;;;8.29;100.00
19576;BME280;41589;51.196;7.074;2023-03-25T19:11:07;98057.81;;;8.12;100.00
19576;BME280;41589;51.196;7.074;2023-03-25T19:16:07;98054.53;;;8.14;100.00
19576;BME280;41589;51.196;7.074;2023-03-25T19:21:09;98047.50;;;8.09;100.00
19576;BME280;41589;51.196;7.074;2023-03-25T19:26:13;98053.88;;;8.19;100.00
19576;BME280;41589;51.196;7.074;2023-03-25T19:31:14;98044.84;;;8.15;100.00
19576;BME280;41589;51.196;7.074;2023-03-25T19:36:16;98042.53;;;8.23;100.00
19576;BME280;41589;51.196;7.074;2023-03-25T19:41:17;98039.25;;;8.24;100.00
19576;BME280;41589;51.196;7.074;2023-03-25T19:46:18;98048.25;;;8.19;100.00
19576;BME280;41589;51.196;7.074;2023-03-25T19:51:18;98058.06;;;8.33;100.00
19576;BME280;41589;51.196;7.074;2023-03-25T19:56:19;98057.22;;;8.41;100.00
19576;BME280;41589;51.196;7.074;2023-03-25T20:01:19;98066.00;;;8.34;100.00
19576;BME280;41589;51.196;7.074;2023-03-25T20:06:21;98060.53;;;8.31;100.00
19576;BME280;41589;51.196;7.074;2023-03-25T20:11:21;98059.94;;;8.27;100.00
19576;BME280;41589;51.196;7.074;2023-03-25T20:16:22;98054.78;;;8.34;100.00
19576;BME280;41589;51.196;7.074;2023-03-25T20:21:22;98056.59;;;8.47;100.00
19576;BME280;41589;51.196;7.074;2023-03-25T20:26:24;98058.59;;;8.55;100.00
19576;BME280;41589;51.196;7.074;2023-03-25T20:31:25;98040.47;;;8.65;100.00
19576;BME280;41589;51.196;7.074;2023-03-25T20:36:26;98043.09;;;8.69;100.00
19576;BME280;41589;51.196;7.074;2023-03-25T20:41:26;98042.44;;;8.74;100.00
19576;BME280;41589;51.196;7.074;2023-03-25T20:46:28;98057.53;;;8.77;100.00
19576;BME280;41589;51.196;7.074;2023-03-25T20:51:30;98061.56;;;8.85;100.00
19576;BME280;41589;51.196;7.074;2023-03-25T20:56:30;98061.66;;;8.90;100.00
19576;BME280;41589;51.196;7.074;2023-03-25T21:01:32;98069.53;;;9.01;100.00
19576;BME280;41589;51.196;7.074;2023-03-25T21:06:34;98075.88;;;9.11;100.00
19576;BME280;41589;51.196;7.074;2023-03-25T21:11:35;98069.00;;;9.12;100.00
19576;BME280;41589;51.196;7.074;2023-03-25T21:16:36;98075.53;;;9.18;100.00
19576;BME280;41589;51.196;7.074;2023-03-25T21:21:37;98078.50;;;9.14;100.00
19576;BME280;41589;51.196;7.074;2023-03-25T21:26:37;98068.91;;;9.06;100.00
19576;BME280;41589;51.196;7.074;2023-03-25T21:31:38;98078.63;;;9.20;100.00
19576;BME280;41589;51.196;7.074;2023-03-25T21:36:38;98072.00;;;9.08;100.00
19576;BME280;41589;51.196;7.074;2023-03-25T21:41:38;98072.00;;;9.08;100.00
19576;BME280;41589;51.196;7.074;2023-03-25T21:46:39;98076.59;;;8.96;100.00
19576;BME280;41589;51.196;7.074;2023-03-25T21:51:40;98079.53;;;9.02;100.00
19576;BME280;41589;51.196;7.074;2023-03-25T21:56:43;98073.56;;;9.09;100.00
19576;BME280;41589;51.196;7.074;2023-03-25T22:01:43;98092.53;;;9.14;100.00
19576;BME280;41589;51.196;7.074;2023-03-25T22:06:44;98110.81;;;9.10;100.00
19576;BME280;41589;51.196;7.074;2023-03-25T22:11:44;98115.81;;;8.82;100.00
19576;BME280;41589;51.196;7.074;2023-03-25T22:16:45;98114.47;;;8.68;100.00
19576;BME280;41589;51.196;7.074;2023-03-25T22:21:45;98114.59;;;8.31;100.00
19576;BME280;41589;51.196;7.074;2023-03-25T22:26:46;98144.03;;;8.45;100.00
19576;BME280;41589;51.196;7.074;2023-03-25T22:31:46;98134.38;;;8.19;100.00
19576;BME280;41589;51.196;7.074;2023-03-25T22:36:49;98145.91;;;8.30;100.00
19576;BME280;41589;51.196;7.074;2023-03-25T22:41:52;98161.19;;;8.29;100.00
19576;BME280;41589;51.196;7.074;2023-03-25T22:46:53;98162.72;;;8.39;100.00
19576;BME280;41589;51.196;7.074;2023-03-25T22:51:57;98154.09;;;8.52;100.00
19576;BME280;41589;51.196;7.074;2023-03-25T22:56:58;98154.09;;;8.61;100.00
19576;BME280;41589;51.196;7.074;2023-03-25T23:02:03;98137.38;;;8.76;100.00
19576;BME280;41589;51.196;7.074;2023-03-25T23:07:19;98151.25;;;8.70;100.00
19576;BME280;41589;51.196;7.074;2023-03-25T23:12:23;98156.53;;;8.77;100.00
19576;BME280;41589;51.196;7.074;2023-03-25T23:17:25;98144.34;;;8.80;100.00
19576;BME280;41589;51.196;7.074;2023-03-25T23:22:28;98154.03;;;8.79;100.00
19576;BME280;41589;51.196;7.074;2023-03-25T23:27:30;98154.81;;;8.70;100.00
19576;BME280;41589;51.196;7.074;2023-03-25T23:32:33;98151.25;;;8.70;100.00
19576;BME280;41589;51.196;7.074;2023-03-25T23:37:36;98155.75;;;8.77;100.00
19576;BME280;41589;51.196;7.074;2023-03-25T23:42:37;98146.25;;;8.74;100.00
19576;BME280;41589;51.196;7.074;2023-03-25T23:47:40;98152.16;;;8.76;100.00
19576;BME280;41589;51.196;7.074;2023-03-25T23:52:47;98154.59;;;8.83;100.00
19576;BME280;41589;51.196;7.074;2023-03-25T23:57:48;98153.72;;;8.77;100.00
